Time;durP1;ratioP1;P1;durP2;ratioP2;P2;SDS_P1;SDS_P2;PMS_P1;PMS_P2;Temp;Humidity;BMP_temperature;BMP_pressure;BME280_temperature;BME280_humidity;BME280_pressure;Samples;Min_cycle;Max_cycle;Signal;HPM_P1;HPM_P2
2022/01/08 00:00:58;;;;;;;28.60;16.25;;;;;;;-0.75;100.00;100838.28;4934750;29;20040;-89
2022/01/08 00:03:24;;;;;;;25.30;15.70;;;;;;;-0.36;100.00;100904.03;4934800;29;20051;-90
2022/01/08 00:05:56;;;;;;;28.65;15.63;;;;;;;-0.50;100.00;100891.13;4919181;29;20499;-90
2022/01/08 00:08:22;;;;;;;29.30;15.45;;;;;;;-1.04;100.00;100805.50;4935062;29;20028;-89
2022/01/08 00:10:48;;;;;;;32.53;16.60;;;;;;;-0.67;100.00;100860.72;4934399;29;20489;-89
2022/01/08 00:13:16;;;;;;;32.28;16.58;;;;;;;-1.04;100.00;100813.50;4934456;29;20038;-90
2022/01/08 00:15:41;;;;;;;35.15;17.55;;;;;;;-1.06;100.00;100821.63;4934039;29;20028;-89
2022/01/08 00:18:07;;;;;;;30.25;16.63;;;;;;;-1.01;100.00;100832.69;4936119;29;20098;-90
2022/01/08 00:20:32;;;;;;;33.55;17.83;;;;;;;-0.74;100.00;100879.97;4934235;29;20034;-89
2022/01/08 00:22:58;;;;;;;35.13;17.70;;;;;;;-0.75;100.00;100890.75;4934623;29;20028;-89
2022/01/08 00:25:23;;;;;;;30.52;17.40;;;;;;;-1.17;100.00;100827.09;4934539;29;20027;-89
2022/01/08 00:27:51;;;;;;;34.30;17.95;;;;;;;-0.77;100.00;100898.03;4918742;29;20063;-89
2022/01/08 00:30:17;;;;;;;31.17;17.77;;;;;;;-1.04;100.00;100862.28;4935600;29;20027;-89
2022/01/08 00:32:42;;;;;;;30.30;16.98;;;;;;;-1.28;100.00;100825.41;4918128;29;20046;-89
2022/01/08 00:35:09;;;;;;;35.15;18.67;;;;;;;-1.29;100.00;100823.72;4933983;29;20441;-89
2022/01/08 00:37:37;;;;;;;31.05;18.17;;;;;;;-1.33;100.00;100824.97;4934113;29;20031;-90
2022/01/08 00:40:07;;;;;;;31.65;18.10;;;;;;;-0.76;100.00;100927.19;4933891;29;20035;-90
2022/01/08 00:42:33;;;;;;;35.70;19.55;;;;;;;-1.35;100.00;100830.44;4933928;29;20028;-90
2022/01/08 00:44:59;;;;;;;33.38;18.83;;;;;;;-0.90;100.00;100914.28;4934300;29;20063;-90
2022/01/08 00:47:30;;;;;;;35.97;19.63;;;;;;;-0.81;100.00;100941.91;4934660;29;20032;-90
2022/01/08 00:49:56;;;;;;;42.92;19.40;;;;;;;-1.02;100.00;100921.56;4918217;29;20218;-89
2022/01/08 00:52:21;;;;;;;36.33;19.98;;;;;;;-1.37;100.00;100864.34;4935470;29;20477;-90
2022/01/08 00:54:47;;;;;;;33.35;19.35;;;;;;;-1.37;100.00;100853.69;4918694;29;20039;-90
2022/01/08 00:57:16;;;;;;;34.28;19.40;;;;;;;-0.89;100.00;100930.16;4919010;29;20071;-90
2022/01/08 00:59:41;;;;;;;34.85;19.33;;;;;;;-1.39;100.00;100838.84;4934722;29;20028;-90
2022/01/08 01:02:07;;;;;;;32.88;19.83;;;;;;;-0.96;100.00;100904.19;4934306;29;20056;-90
2022/01/08 01:04:41;;;;;;;37.20;20.05;;;;;;;-0.69;100.00;100955.94;4934054;29;20024;-88
2022/01/08 01:07:09;;;;;;;36.42;19.02;;;;;;;-1.31;100.00;100846.97;4935173;29;20068;-89
2022/01/08 01:09:35;;;;;;;34.33;20.05;;;;;;;-0.91;100.00;100916.13;4917740;29;20398;-89
2022/01/08 01:12:00;;;;;;;34.63;20.92;;;;;;;-0.95;100.00;100895.22;4902253;29;20036;-88
2022/01/08 01:14:32;;;;;;;36.67;19.80;;;;;;;-1.29;100.00;100850.34;4933611;29;20032;-89
2022/01/08 01:16:58;;;;;;;35.25;20.25;;;;;;;-1.35;100.00;100850.91;4933879;29;20544;-88
2022/01/08 01:19:25;;;;;;;36.38;21.40;;;;;;;-1.32;100.00;100863.94;4933901;29;20127;-89
2022/01/08 01:21:55;;;;;;;34.33;21.10;;;;;;;-1.42;100.00;100839.94;4933824;29;20086;-89
2022/01/08 01:24:24;;;;;;;39.35;22.63;;;;;;;-0.92;100.00;100926.91;4934757;29;20023;-89
2022/01/08 01:29:39;;;;;;;39.85;22.75;;;;;;;-1.08;100.00;100908.78;4937583;29;20433;-89
2022/01/08 01:46:59;;;;;;;42.72;25.25;;;;;;;-1.63;100.00;100848.84;4923509;29;20452;-88
2022/01/08 01:49:00;;;;;;;46.30;26.40;;;;;;;-0.96;100.00;100962.78;4923934;29;20050;-89
2022/01/08 01:51:25;;;;;;;49.28;27.02;;;;;;;-1.22;100.00;100922.53;4936966;29;20126;-88
2022/01/08 01:54:00;;;;;;;43.65;27.17;;;;;;;-1.31;100.00;100910.88;4936998;29;20024;-88
2022/01/08 01:56:27;;;;;;;50.97;27.63;;;;;;;-1.01;100.00;100947.22;4936879;29;20082;-89
2022/01/08 01:58:55;;;;;;;50.20;27.45;;;;;;;-1.36;100.00;100903.28;4937228;29;20028;-89
2022/01/08 02:01:24;;;;;;;46.35;27.05;;;;;;;-1.53;100.00;100869.34;4936396;29;20047;-89
2022/01/08 02:03:53;;;;;;;51.75;28.70;;;;;;;-1.42;100.00;100887.84;4936474;29;20053;-89
2022/01/08 02:06:19;;;;;;;47.92;28.45;;;;;;;-1.13;100.00;100941.16;4936756;29;20047;-88
2022/01/08 02:08:45;;;;;;;50.58;27.10;;;;;;;-1.72;100.00;100847.03;4905182;29;20099;-88
2022/01/08 02:11:15;;;;;;;53.88;28.42;;;;;;;-1.41;100.00;100906.34;4937840;29;20036;-88
2022/01/08 02:13:41;;;;;;;55.58;27.65;;;;;;;-1.08;100.00;100946.09;4936562;29;20122;-88
2022/01/08 02:16:16;;;;;;;48.47;28.30;;;;;;;-1.38;100.00;100912.41;4936240;29;20127;-88
2022/01/08 02:18:45;;;;;;;53.08;28.92;;;;;;;-1.47;100.00;100896.25;4937415;29;20039;-88
2022/01/08 02:21:15;;;;;;;54.25;28.98;;;;;;;-1.70;100.00;100847.72;4937711;29;20071;-88
2022/01/08 02:23:42;;;;;;;56.60;29.42;;;;;;;-1.49;100.00;100892.91;4936389;29;20027;-89
2022/01/08 02:26:09;;;;;;;46.63;28.38;;;;;;;-1.72;100.00;100852.34;4920247;29;20044;-88
2022/01/08 02:28:36;;;;;;;51.35;27.63;;;;;;;-1.45;100.00;100901.44;4920621;29;20042;-88
2022/01/08 02:31:02;;;;;;;53.60;29.20;;;;;;;-1.49;100.00;100908.00;4935969;29;20448;-88
2022/01/08 02:33:28;;;;;;;52.03;28.60;;;;;;;-1.68;100.00;100883.03;4936019;29;20035;-88
2022/01/08 02:35:54;;;;;;;54.78;28.45;;;;;;;-1.67;100.00;100871.41;4935454;29;20063;-88
2022/01/08 02:38:20;;;;;;;56.72;29.40;;;;;;;-1.63;100.00;100874.63;4935581;29;20090;-88
2022/01/08 02:40:54;;;;;;;50.25;28.48;;;;;;;-1.51;100.00;100891.34;4936152;29;20639;-88
2022/01/08 02:43:23;;;;;;;56.92;31.13;;;;;;;-1.41;100.00;100917.00;4935693;29;20127;-88
2022/01/08 02:45:55;;;;;;;63.42;30.55;;;;;;;-1.41;100.00;100889.53;4936127;29;20028;-88
2022/01/08 02:48:23;;;;;;;;;;;;;;;-0.73;100.00;100974.88;4936091;29;20042;-88
2022/01/08 02:50:49;;;;;;;48.78;26.95;;;;;;;-1.34;100.00;100892.53;4935827;29;20046;-88
2022/01/08 02:53:16;;;;;;;57.95;30.40;;;;;;;-0.81;100.00;100971.22;4935669;29;20114;-88
2022/01/08 02:55:42;;;;;;;48.45;28.05;;;;;;;-1.06;100.00;100930.81;4936164;29;20044;-88
2022/01/08 02:58:10;;;;;;;55.15;27.40;;;;;;;-1.29;100.00;100882.28;4937111;29;20370;-87
2022/01/08 03:00:35;;;;;;;52.55;29.85;;;;;;;-1.37;100.00;100877.66;4919545;29;20040;-88
2022/01/08 03:03:01;;;;;;;57.95;29.05;;;;;;;-1.38;100.00;100880.44;4935390;29;20086;-88
2022/01/08 03:05:27;;;;;;;55.17;28.75;;;;;;;-0.83;100.00;100973.19;4935604;29;20046;-88
2022/01/08 03:07:55;;;;;;;48.20;27.40;;;;;;;-1.27;100.00;100902.47;4935805;29;20027;-88
2022/01/08 03:10:20;;;;;;;53.85;27.17;;;;;;;-1.44;100.00;100877.34;4919519;29;20032;-88
2022/01/08 03:12:49;;;;;;;50.83;28.80;;;;;;;-1.14;100.00;100914.69;4919540;29;20577;-88
2022/01/08 03:15:17;;;;;;;45.53;28.15;;;;;;;-0.91;100.00;100965.91;4935176;29;20453;-88
2022/01/08 03:17:43;;;;;;;52.95;27.85;;;;;;;-1.21;100.00;100922.38;4935240;29;20500;-88
2022/01/08 03:20:12;;;;;;;46.72;25.88;;;;;;;-1.02;100.00;100931.38;4919375;29;20445;-88
2022/01/08 03:22:46;;;;;;;48.45;27.38;;;;;;;-1.02;100.00;100950.03;4935416;29;20031;-88
2022/01/08 03:25:15;;;;;;;52.72;27.13;;;;;;;-1.13;100.00;100940.34;4936562;29;20122;-89
2022/01/08 03:27:41;;;;;;;52.60;28.15;;;;;;;-1.55;100.00;100881.94;4935803;29;20497;-88
2022/01/08 03:30:09;;;;;;;55.08;27.75;;;;;;;-1.11;100.00;100949.03;4935513;29;20087;-88
2022/01/08 03:32:35;;;;;;;52.08;26.42;;;;;;;-1.01;100.00;100962.38;4936135;29;20032;-88
2022/01/08 03:35:01;;;;;;;50.60;27.50;;;;;;;-1.37;100.00;100914.91;4935896;29;20039;-88
2022/01/08 03:37:26;;;;;;;53.38;26.73;;;;;;;-1.54;100.00;100880.97;4919557;29;20070;-89
2022/01/08 03:39:52;;;;;;;48.72;26.92;;;;;;;-1.34;100.00;100913.81;4935175;29;20446;-89
2022/01/08 03:42:17;;;;;;;51.25;27.95;;;;;;;-1.61;100.00;100872.66;4935091;29;20039;-89
2022/01/08 03:44:43;;;;;;;54.45;28.10;;;;;;;-1.19;100.00;100936.41;4935398;29;20110;-89
2022/01/08 03:50:13;;;;;;;51.13;27.23;;;;;;;-1.56;100.00;100878.44;4902865;29;20051;-89
2022/01/08 03:52:41;;;;;;;43.30;24.38;;;;;;;-1.55;100.00;100880.13;4919529;29;20040;-89
2022/01/08 03:55:10;;;;;;;48.70;25.38;;;;;;;-1.24;100.00;100923.50;4935980;29;20035;-89
2022/01/08 03:57:35;;;;;;;46.85;27.02;;;;;;;-1.02;100.00;100985.47;4934649;29;20036;-89
2022/01/08 04:00:07;;;;;;;48.50;27.90;;;;;;;-1.61;100.00;100876.19;4903198;29;20500;-89
2022/01/08 04:02:33;;;;;;;;;;;;;;;-1.01;100.00;100981.00;4934380;29;20056;-89
2022/01/08 04:04:58;;;;;;;50.03;26.33;;;;;;;-1.21;100.00;100956.16;4934644;29;19915;-89
2022/01/08 04:07:24;;;;;;;46.92;27.33;;;;;;;-1.29;100.00;100954.16;4918590;29;20127;-88
2022/01/08 04:09:49;;;;;;;48.03;28.75;;;;;;;-1.18;100.00;100962.06;4918609;29;20378;-89
2022/01/08 04:12:33;;;;;;;48.45;27.85;;;;;;;-0.95;100.00;100999.94;4934477;29;20039;-89
2022/01/08 04:15:08;;;;;;;50.13;28.13;;;;;;;-1.58;100.00;100891.03;4920225;29;20031;-88
2022/01/08 04:17:39;;;;;;;49.95;28.15;;;;;;;-1.56;100.00;100902.38;4935923;29;20385;-89
2022/01/08 04:20:05;;;;;;;50.60;28.90;;;;;;;-1.36;100.00;100926.41;4918151;29;20071;-89
2022/01/08 04:22:31;;;;;;;51.13;27.88;;;;;;;-1.20;100.00;100964.00;4934432;29;20070;-88
2022/01/08 04:24:56;;;;;;;52.25;29.20;;;;;;;-1.62;100.00;100900.28;4918633;29;20063;-89
2022/01/08 04:27:22;;;;;;;53.83;28.30;;;;;;;-1.36;100.00;100951.19;4934388;29;20389;-88
2022/01/08 04:29:47;;;;;;;50.90;29.48;;;;;;;-1.63;100.00;100904.72;4934260;29;20473;-89
2022/01/08 04:32:16;;;;;;;49.47;29.08;;;;;;;-1.27;100.00;100962.84;4934212;29;20130;-88
2022/01/08 04:34:41;;;;;;;52.47;28.85;;;;;;;-1.44;100.00;100927.09;4918202;29;20027;-88
2022/01/08 04:37:07;;;;;;;53.72;29.77;;;;;;;-1.59;100.00;100908.00;4933886;29;20062;-89
2022/01/08 04:39:32;;;;;;;49.63;28.80;;;;;;;-1.16;100.00;100983.22;4935187;29;20504;-89
2022/01/08 04:41:58;;;;;;;51.05;29.70;;;;;;;-1.49;100.00;100915.97;4935132;29;20047;-88
2022/01/08 04:44:26;;;;;;;52.78;29.90;;;;;;;-1.53;100.00;100922.56;4933776;29;20028;-88
2022/01/08 04:46:52;;;;;;;48.28;28.52;;;;;;;-1.46;100.00;100927.22;4935228;29;20119;-89
2022/01/08 04:49:17;;;;;;;53.58;30.23;;;;;;;-1.46;100.00;100916.56;4933959;29;20015;-89
2022/01/08 04:51:43;;;;;;;50.03;28.33;;;;;;;-1.15;100.00;100977.75;4933990;29;20039;-89
2022/01/08 04:54:11;;;;;;;54.58;28.33;;;;;;;-1.47;100.00;100927.34;4917445;29;20043;-88
2022/01/08 04:56:36;;;;;;;52.83;28.65;;;;;;;-1.48;100.00;100925.66;4918208;29;20039;-88
2022/01/08 04:59:02;;;;;;;51.63;27.27;;;;;;;-0.89;100.00;101030.53;4933822;29;20035;-88
2022/01/08 05:01:28;;;;;;;50.10;26.95;;;;;;;-1.12;100.00;101003.25;4936808;29;20473;-88
2022/01/08 05:03:53;;;;;;;52.17;27.83;;;;;;;-0.92;100.00;101028.13;4921633;29;20472;-89
2022/01/08 05:06:19;;;;;;;49.92;27.85;;;;;;;-1.24;100.00;100979.41;4921848;29;20137;-88
2022/01/08 05:08:44;;;;;;;45.80;26.58;;;;;;;-1.33;100.00;100977.56;4937833;29;20035;-88
2022/01/08 05:11:10;;;;;;;48.28;26.83;;;;;;;-1.18;100.00;101002.00;4938387;29;20114;-87
2022/01/08 05:13:35;;;;;;;47.58;25.55;;;;;;;-1.37;100.00;100973.47;4938923;29;20029;-88
2022/01/08 05:16:01;;;;;;;45.45;25.33;;;;;;;-1.55;100.00;100946.66;4921909;29;20462;-88
2022/01/08 05:18:29;;;;;;;42.85;25.70;;;;;;;-1.04;100.00;101023.91;4921901;29;20047;-88
2022/01/08 05:21:07;;;;;;;47.10;25.20;;;;;;;-0.99;100.00;101040.31;4937647;29;20031;-88
2022/01/08 05:23:33;;;;;;;49.58;26.83;;;;;;;-1.53;100.00;100943.88;4923427;29;20079;-88
2022/01/08 05:25:58;;;;;;;45.42;25.83;;;;;;;-1.43;100.00;100942.09;4921329;29;20516;-88
2022/01/08 05:28:26;;;;;;;47.55;26.75;;;;;;;-1.24;100.00;100979.41;4938490;29;20035;-88
2022/01/08 05:30:52;;;;;;;42.53;24.67;;;;;;;-1.04;100.00;100997.28;4921515;29;20063;-87
2022/01/08 05:33:17;;;;;;;46.90;26.27;;;;;;;-1.08;100.00;100992.22;4905518;29;20130;-88
2022/01/08 05:35:44;;;;;;;41.97;23.58;;;;;;;-1.36;100.00;100947.69;4921011;29;20126;-88
2022/01/08 05:38:10;;;;;;;42.53;23.40;;;;;;;-1.34;100.00;100938.59;4936550;29;20043;-88
2022/01/08 05:40:35;;;;;;;41.42;22.45;;;;;;;-0.99;100.00;100998.56;4937181;29;20023;-88
2022/01/08 05:43:01;;;;;;;44.13;21.33;;;;;;;-1.38;100.00;100928.38;4921056;29;20043;-88
2022/01/08 05:45:26;;;;;;;39.17;22.17;;;;;;;-0.81;100.00;101016.50;4921442;29;20043;-89
2022/01/08 05:47:52;;;;;;;37.13;21.23;;;;;;;-1.22;100.00;100970.44;4904970;29;20035;-88
2022/01/08 05:50:17;;;;;;;40.53;20.35;;;;;;;-1.40;100.00;100947.13;4938338;29;20036;-89
2022/01/08 05:52:48;;;;;;;34.47;20.02;;;;;;;-1.30;100.00;100977.28;4921046;29;20055;-89
2022/01/08 05:55:14;;;;;;;37.72;20.85;;;;;;;-1.05;100.00;101023.03;4921706;29;20043;-88
2022/01/08 05:57:40;;;;;;;44.58;20.90;;;;;;;-1.30;100.00;100968.44;4937008;29;20032;-89
2022/01/08 06:00:07;;;;;;;38.78;21.00;;;;;;;-1.11;100.00;101012.94;4920794;29;20556;-89
2022/01/08 06:02:33;;;;;;;38.83;20.77;;;;;;;-1.18;100.00;101012.66;4936489;29;20441;-88
2022/01/08 06:04:58;;;;;;;39.00;21.08;;;;;;;-1.30;100.00;100995.94;4936275;29;20030;-88
2022/01/08 06:07:24;;;;;;;43.30;21.90;;;;;;;-1.53;100.00;100971.31;4920843;29;20036;-88
2022/01/08 06:09:52;;;;;;;38.67;22.05;;;;;;;-1.47;100.00;100975.25;4937823;29;20126;-88
2022/01/08 06:12:17;;;;;;;41.85;20.95;;;;;;;-0.90;100.00;101060.78;4936400;29;20023;-88
2022/01/08 06:14:43;;;;;;;40.42;21.60;;;;;;;-1.14;100.00;101016.69;4921944;29;20064;-91
2022/01/08 06:17:08;;;;;;;37.25;20.73;;;;;;;-1.10;100.00;101034.09;4906236;29;20463;-91
2022/01/08 06:19:37;;;;;;;38.92;21.33;;;;;;;-1.30;100.00;101000.38;4937694;29;20059;-93
2022/01/08 06:22:08;;;;;;;43.85;21.38;;;;;;;-1.23;100.00;101012.19;4937015;29;20036;-89
2022/01/08 06:24:34;;;;;;;41.70;20.92;;;;;;;-1.38;100.00;100965.63;4936422;29;20036;-89
2022/01/08 06:26:59;;;;;;;43.03;22.33;;;;;;;-1.16;100.00;100989.38;4904846;29;20489;-88
2022/01/08 06:29:25;;;;;;;43.72;22.90;;;;;;;-1.15;100.00;100966.25;4904644;29;20070;-89
2022/01/08 06:31:59;;;;;;;40.70;21.90;;;;;;;-1.14;100.00;100970.59;4935988;29;20023;-87
2022/01/08 06:34:25;;;;;;;34.97;21.23;;;;;;;-0.79;100.00;101027.91;4937531;29;20094;-87
2022/01/08 06:36:53;;;;;;;36.67;20.63;;;;;;;-0.50;100.00;101069.72;4920636;29;20039;-87
2022/01/08 06:39:19;;;;;;;38.03;20.25;;;;;;;-0.54;100.00;101054.03;4936121;29;20038;-86
2022/01/08 06:41:45;;;;;;;39.20;19.95;;;;;;;-1.15;100.00;100955.59;4936199;29;20478;-87
2022/01/08 06:44:14;;;;;;;35.47;18.52;;;;;;;-0.83;100.00;101007.81;4935947;29;20035;-85
2022/01/08 06:46:40;;;;;;;33.90;18.20;;;;;;;-0.98;100.00;101000.22;4937537;29;20114;-87
2022/01/08 06:49:07;;;;;;;32.70;18.48;;;;;;;-0.93;100.00;101018.44;4936257;29;20551;-88
2022/01/08 06:51:36;;;;;;;36.08;19.23;;;;;;;-0.99;100.00;101011.88;4919774;29;20070;-91
2022/01/08 06:54:04;;;;;;;37.67;20.10;;;;;;;-1.04;100.00;100999.94;4936887;29;20024;-89
2022/01/08 06:56:30;;;;;;;41.25;20.05;;;;;;;-1.57;100.00;100919.31;4936051;29;20035;-88
2022/01/08 06:58:56;;;;;;;40.75;20.85;;;;;;;-0.91;100.00;101040.47;4936278;29;20024;-88
2022/01/08 07:01:21;;;;;;;38.78;20.55;;;;;;;-1.45;100.00;100942.22;4936130;29;20031;-88
2022/01/08 07:03:47;;;;;;;36.88;20.05;;;;;;;-1.39;100.00;100959.44;4935978;29;20491;-87
2022/01/08 07:06:12;;;;;;;42.47;20.15;;;;;;;-1.46;100.00;100951.16;4921979;29;20370;-88
2022/01/08 07:08:40;;;;;;;41.00;20.70;;;;;;;-0.97;100.00;101052.50;4920748;29;20035;-90
2022/01/08 07:11:05;;;;;;;36.17;20.38;;;;;;;-1.22;100.00;101002.41;4905403;29;20035;-86
2022/01/08 07:13:31;;;;;;;44.00;20.67;;;;;;;-1.61;100.00;100933.88;4935264;29;20394;-88
2022/01/08 07:15:56;;;;;;;39.92;19.70;;;;;;;-0.99;100.00;101038.50;4920583;29;20043;-90
2022/01/08 07:18:22;;;;;;;40.83;20.65;;;;;;;-1.07;100.00;101019.69;4920049;29;20034;-89
2022/01/08 07:20:47;;;;;;;41.70;21.77;;;;;;;-1.63;100.00;100941.97;4936994;29;20047;-89
2022/01/08 07:23:21;;;;;;;38.38;20.52;;;;;;;-1.40;100.00;100987.06;4935273;29;20028;-88
2022/01/08 07:25:46;;;;;;;43.35;22.02;;;;;;;-0.99;100.00;101042.97;4935710;29;20544;-88
2022/01/08 07:28:12;;;;;;;44.92;21.80;;;;;;;-1.48;100.00;100962.91;4935490;29;20039;-88
2022/01/08 07:30:37;;;;;;;42.72;21.77;;;;;;;-1.38;100.00;100969.13;4934934;29;20067;-88
2022/01/08 07:33:05;;;;;;;44.65;22.10;;;;;;;-1.56;100.00;100941.47;4935532;29;20035;-89
2022/01/08 07:35:31;;;;;;;40.47;21.00;;;;;;;-1.11;100.00;101002.28;4934967;29;20346;-88
2022/01/08 07:37:57;;;;;;;46.33;22.17;;;;;;;-1.45;100.00;100952.00;4919240;29;20397;-88
2022/01/08 07:40:22;;;;;;;41.70;20.90;;;;;;;-1.06;100.00;101003.56;4935022;29;20469;-89
2022/01/08 07:42:50;;;;;;;48.00;22.63;;;;;;;-1.41;100.00;100956.09;4919397;29;20152;-88
2022/01/08 07:45:17;;;;;;;43.47;22.65;;;;;;;-0.99;100.00;101013.66;4935655;29;20118;-90
2022/01/08 07:47:43;;;;;;;42.45;21.38;;;;;;;-1.15;100.00;100982.22;4937041;29;20075;-89
2022/01/08 07:50:09;;;;;;;41.05;21.90;;;;;;;-0.94;100.00;100998.13;4934866;29;20047;-89
2022/01/08 07:52:35;;;;;;;44.47;21.80;;;;;;;-0.93;100.00;100997.13;4935159;29;20042;-89
2022/01/08 07:55:00;;;;;;;42.15;21.58;;;;;;;-0.66;100.00;101027.66;4935032;29;20032;-87
2022/01/08 07:57:26;;;;;;;41.97;21.65;;;;;;;-0.99;100.00;100969.25;4935429;29;20429;-89
2022/01/08 07:59:52;;;;;;;44.00;20.90;;;;;;;-0.59;100.00;101026.09;4936243;29;20401;-88
2022/01/08 08:02:21;;;;;;;43.88;20.70;;;;;;;-0.55;100.00;101019.50;4934921;29;20028;-89
2022/01/08 08:04:46;;;;;;;36.65;19.33;;;;;;;-0.90;100.00;100946.25;4935289;29;20163;-89
2022/01/08 08:07:12;;;;;;;45.15;19.88;;;;;;;-0.82;100.00;100953.56;4934802;29;20090;-88
2022/01/08 08:09:38;;;;;;;41.35;19.08;;;;;;;-0.68;100.00;100970.97;4935235;29;20122;-88
2022/01/08 08:12:04;;;;;;;42.47;20.50;;;;;;;-1.01;100.00;100911.75;4934514;29;20564;-89
2022/01/08 08:14:30;;;;;;;39.30;19.40;;;;;;;-0.49;100.00;101005.63;4935942;29;20050;-88
2022/01/08 08:16:59;;;;;;;42.17;19.95;;;;;;;-0.32;100.00;101012.09;4918550;29;20051;-88
2022/01/08 08:19:27;;;;;;;39.83;19.25;;;;;;;-0.30;100.00;101006.63;4936152;29;20036;-88
2022/01/08 08:21:53;;;;;;;38.58;18.73;;;;;;;-0.83;100.00;100912.75;4934543;29;20034;-89
2022/01/08 08:24:20;;;;;;;43.38;19.58;;;;;;;-0.78;100.00;100912.34;4917838;29;20067;-88
2022/01/08 08:26:49;;;;;;;38.65;20.50;;;;;;;-0.13;100.00;101002.38;4933987;29;20504;-88
2022/01/08 08:29:14;;;;;;;40.78;20.30;;;;;;;-0.38;100.00;100967.34;4935650;29;20035;-88
2022/01/08 08:31:40;;;;;;;40.85;20.42;;;;;;;-0.30;100.00;100971.97;4934100;29;20548;-88
2022/01/08 08:34:05;;;;;;;41.28;21.35;;;;;;;-0.27;100.00;100975.16;4918506;29;20460;-88
2022/01/08 08:36:33;;;;;;;36.22;21.10;;;;;;;-0.54;100.00;100923.41;4933746;29;20500;-88
2022/01/08 08:39:02;;;;;;;41.22;21.25;;;;;;;-0.21;100.00;100973.75;4934351;29;20032;-87
2022/01/08 08:41:27;;;;;;;50.58;22.77;;;;;;;-0.55;100.00;100904.91;4933729;29;20468;-87
2022/01/08 08:43:53;;;;;;;47.60;23.05;;;;;;;-0.15;100.00;100964.34;4934789;29;20060;-88
2022/01/08 08:46:19;;;;;;;42.25;21.88;;;;;;;-0.24;100.00;100939.38;4919047;29;20058;-89
2022/01/08 08:48:45;;;;;;;44.70;23.98;;;;;;;-0.19;100.00;100940.66;4934219;29;20122;-89
2022/01/08 08:51:11;;;;;;;41.22;20.88;;;;;;;-0.40;100.00;100906.16;4902788;29;20066;-88
2022/01/08 08:53:36;;;;;;;46.97;25.23;;;;;;;-0.02;100.00;100952.38;4933857;29;20390;-88
2022/01/08 08:56:02;;;;;;;44.55;23.67;;;;;;;0.04;100.00;100952.81;4934251;29;20405;-89
2022/01/08 08:58:27;;;;;;;51.50;25.38;;;;;;;-0.19;100.00;100913.97;4918331;29;20039;-89
2022/01/08 09:00:53;;;;;;;44.40;23.83;;;;;;;0.31;100.00;100992.06;4934571;29;20094;-89
2022/01/08 09:03:20;;;;;;;46.25;24.63;;;;;;;-0.27;100.00;100897.00;4902598;29;20177;-87
2022/01/08 09:05:46;;;;;;;48.97;24.55;;;;;;;0.36;100.00;100986.31;4917080;29;20417;-87
2022/01/08 09:08:12;;;;;;;41.38;21.15;;;;;;;-0.15;100.00;100897.69;4934072;29;20042;-89
2022/01/08 09:10:40;;;;;;;44.10;23.77;;;;;;;0.21;100.00;100962.75;4934409;29;20417;-88
2022/01/08 09:13:08;;;;;;;42.85;23.55;;;;;;;0.43;100.00;100987.38;4933658;29;20040;-88
2022/01/08 09:15:37;;;;;;;44.72;23.20;;;;;;;0.32;100.00;100965.22;4917973;29;20043;-88
2022/01/08 09:18:07;;;;;;;44.72;23.27;;;;;;;-0.04;100.00;100902.84;4933810;29;20536;-87
2022/01/08 09:20:35;;;;;;;41.03;23.58;;;;;;;0.01;100.00;100905.09;4933790;29;20056;-88
2022/01/08 09:23:01;;;;;;;41.85;21.15;;;;;;;-0.03;100.00;100889.38;4933302;29;20067;-87
2022/01/08 09:25:27;;;;;;;43.80;23.13;;;;;;;0.16;100.00;100900.94;4933471;29;20504;-88
2022/01/08 09:27:52;;;;;;;40.80;23.02;;;;;;;0.54;100.00;100949.84;4917927;29;20036;-88
2022/01/08 09:30:18;;;;;;;34.97;17.65;;;;;;;0.22;100.00;100883.53;4933785;29;20042;-88
2022/01/08 09:32:44;;;;;;;42.25;21.73;;;;;;;0.71;100.00;100961.56;4932631;29;20038;-87
2022/01/08 09:35:10;;;;;;;40.25;20.77;;;;;;;0.56;100.00;100936.34;4933749;29;20043;-89
2022/01/08 09:37:39;;;;;;;35.85;19.60;;;;;;;0.44;100.00;100892.97;4934107;29;20031;-89
2022/01/08 09:40:13;;;;;;;39.05;21.20;;;;;;;0.64;100.00;100925.78;4934585;29;20035;-86
2022/01/08 09:42:44;;;;;;;41.72;22.10;;;;;;;0.60;100.00;100906.50;4917455;29;20545;-87
2022/01/08 09:45:11;;;;;;;39.75;20.67;;;;;;;0.30;100.00;100841.75;4913955;29;20036;-88
2022/01/08 09:47:39;;;;;;;38.08;20.20;;;;;;;0.94;100.00;100939.78;4915973;29;20044;-87
2022/01/08 09:50:06;;;;;;;38.88;22.13;;;;;;;0.46;100.00;100845.63;4924851;29;20076;-87
2022/01/08 09:52:36;;;;;;;37.25;21.35;;;;;;;0.90;100.00;100896.53;4937751;29;20032;-88
2022/01/08 09:55:02;;;;;;;37.63;21.42;;;;;;;0.97;100.00;100891.41;4936723;29;20556;-87
2022/01/08 09:57:31;;;;;;;40.42;22.13;;;;;;;1.16;100.00;100912.63;4905594;29;20040;-87
2022/01/08 09:59:57;;;;;;;38.90;20.55;;;;;;;1.19;100.00;100904.28;4937113;29;20474;-85
2022/01/08 10:02:26;;;;;;;38.83;21.20;;;;;;;0.73;100.00;100834.06;4920768;29;20130;-89
2022/01/08 10:04:52;;;;;;;34.72;20.45;;;;;;;1.26;100.00;100895.69;4936441;29;20480;-89
2022/01/08 10:07:25;;;;;;;30.77;18.73;;;;;;;1.28;100.00;100891.03;4921583;29;20135;-90
2022/01/08 10:10:17;;;;;;;35.45;20.45;;;;;;;1.21;100.00;100862.25;4937324;29;20064;-89
2022/01/08 10:12:54;;;;;;;35.83;19.52;;;;;;;0.72;100.00;100781.63;4922169;29;20433;-91
2022/01/08 10:18:24;;;;;;;36.58;19.73;;;;;;;1.20;100.00;100806.25;4938906;29;20047;-92
2022/01/08 10:20:52;;;;;;;38.55;21.70;;;;;;;0.86;100.00;100749.03;4937012;29;20055;-91
2022/01/08 10:23:34;;;;;;;;;;;;;;;;;;;;;
2022/01/08 10:26:09;;;;;;;40.45;20.40;;;;;;;0.92;100.00;100725.38;4938596;29;20023;-91
2022/01/08 10:28:59;;;;;;;34.78;17.90;;;;;;;1.62;100.00;100815.41;4937727;29;20063;-91
2022/01/08 10:31:32;;;;;;;37.80;19.90;;;;;;;1.01;100.00;100725.28;4937691;29;20374;-91
2022/01/08 10:34:08;;;;;;;37.30;19.25;;;;;;;1.62;100.00;100810.88;4937812;29;20043;-91
2022/01/08 10:36:44;;;;;;;35.15;18.40;;;;;;;1.13;100.00;100717.00;4938240;29;20042;-91
2022/01/08 10:39:20;;;;;;;35.40;18.23;;;;;;;1.12;100.00;100716.19;4937897;29;20122;-91
2022/01/08 10:41:49;;;;;;;34.45;17.02;;;;;;;1.09;100.00;100704.94;4937890;29;20043;-91
2022/01/08 10:44:23;;;;;;;30.95;17.00;;;;;;;1.19;100.00;100703.00;4936852;29;20050;-93
2022/01/08 10:47:02;;;;;;;34.13;16.88;;;;;;;1.54;100.00;100747.50;4937441;29;20074;-92
2022/01/08 10:49:37;;;;;;;33.13;17.67;;;;;;;1.19;100.00;100679.78;4937148;29;20028;-91
2022/01/08 10:52:26;;;;;;;31.98;18.15;;;;;;;1.46;100.00;100711.84;4936828;29;20027;-91
2022/01/08 10:55:01;;;;;;;31.30;16.65;;;;;;;1.25;100.00;100675.66;4937199;29;20176;-91
2022/01/08 10:57:44;;;;;;;34.80;17.75;;;;;;;1.21;100.00;100663.59;4936533;29;20035;-92
2022/01/08 11:00:15;;;;;;;29.13;17.02;;;;;;;1.19;100.00;100661.06;4936882;29;20487;-92
2022/01/08 11:02:44;;;;;;;29.17;16.30;;;;;;;1.58;100.00;100703.41;4936364;29;20031;-91
2022/01/08 11:05:13;;;;;;;27.52;15.80;;;;;;;1.27;100.00;100654.09;4936751;29;20044;-92
2022/01/08 11:07:46;;;;;;;28.27;14.32;;;;;;;1.85;100.00;100735.44;4937113;29;20496;-92
2022/01/08 11:10:20;;;;;;;22.60;13.20;;;;;;;1.35;100.00;100632.78;4906021;29;20043;-92
2022/01/08 11:13:00;;;;;;;30.88;15.25;;;;;;;1.58;100.00;100641.06;4936558;29;20429;-91
2022/01/08 11:15:49;;;;;;;24.27;13.13;;;;;;;1.56;100.00;100613.63;4933271;29;20055;-92
2022/01/08 11:18:20;;;;;;;21.95;11.68;;;;;;;1.64;100.00;100599.44;4936369;29;20291;-92
2022/01/08 11:21:07;;;;;;;23.85;11.68;;;;;;;1.75;100.00;100608.00;4936745;29;20042;-92
2022/01/08 11:23:36;;;;;;;22.20;11.82;;;;;;;1.72;100.00;100602.97;4936411;29;20396;-92
2022/01/08 11:26:10;;;;;;;19.60;11.98;;;;;;;1.72;100.00;100588.78;4936786;29;20475;-91
2022/01/08 11:28:48;;;;;;;20.83;11.32;;;;;;;1.77;100.00;100578.41;4936568;29;20449;-92
2022/01/08 11:31:21;;;;;;;23.33;11.63;;;;;;;1.91;100.00;100588.47;4935994;29;20507;-92